Current Conditions
Light Rain
Showers



Pressure
1016.92 (hPa) - 30.03 (inHG)
Visibility

10.0 (km) - 6.2 (miles)
Temperature
10  °C
Temperature
7  °C
Dewpoint
82  %
 Humidity
Wind Speed
21  km/h
11  kts
13  mph
5.8  m/s
Wind Direction
N
45°
E
90°
135°
S
180°
225°
W
270°
315°
 330°

North North
West
Airport Data
EHAM
Amsterdam Airport Schiphol
Metar :EHAM 290225Z 33011KT 9999 -SHRA FEW020TCU SCT045 10/07 Q1017 NOSIG
Sun 29th May 03:25 am
Raw Metar Info
Raw METAR is the most common format in the world for the transmission of observational weather data. It is highly standardized through the International Civil Aviation Organization (ICAO), which allows it to be understood throughout most of the world.
API Info
Data Provided by
https://www.checkwx.com/weather/EHAM

Aviation Weather providing METAR, TAF, AIRMET, SIGMET and OUTLOOK Weather Reports
© Info
CSS/SVG/PHP scripts were developed by weather34.com for use in the weather34 template © 2015-2022

Guide Info provided by Metar-Wikipedia